Time;durP1;ratioP1;P1;durP2;ratioP2;P2;SDS_P1;SDS_P2;PMS_P1;PMS_P2;Temp;Humidity;BMP_temperature;BMP_pressure;BME280_temperature;BME280_humidity;BME280_pressure;Samples;Min_cycle;Max_cycle;Signal;HPM_P1;HPM_P2
2023/12/21 00:02:08;;;;;;;10.57;5.53;;;9.50;17.30;;;;;;7401192;19;19929;-73
2023/12/21 00:04:33;;;;;;;10.70;6.28;;;9.50;17.00;;;;;;7397294;19;19945;-73
2023/12/21 00:07:00;;;;;;;10.10;5.55;;;9.60;16.70;;;;;;7400470;19;19941;-73
2023/12/21 00:09:26;;;;;;;10.57;5.57;;;9.50;17.50;;;;;;7396370;19;20394;-73
2023/12/21 00:11:52;;;;;;;10.27;5.07;;;9.50;17.10;;;;;;7399496;19;19922;-73
2023/12/21 00:14:18;;;;;;;9.98;5.15;;;9.40;17.30;;;;;;7399966;19;19950;-72
2023/12/21 00:16:43;;;;;;;10.77;5.38;;;9.50;16.40;;;;;;7400069;19;19914;-72
2023/12/21 00:19:09;;;;;;;11.38;5.28;;;9.50;16.80;;;;;;7397655;19;19918;-73
2023/12/21 00:21:35;;;;;;;10.60;5.07;;;9.40;17.30;;;;;;7400586;19;19939;-72
2023/12/21 00:24:01;;;;;;;9.38;5.07;;;9.30;17.80;;;;;;7401275;19;20417;-73
2023/12/21 00:26:26;;;;;;;8.93;4.88;;;9.40;17.10;;;;;;7401907;19;19926;-76
2023/12/21 00:28:52;;;;;;;9.40;5.00;;;9.50;17.20;;;;;;7398698;19;19952;-72
2023/12/21 00:31:18;;;;;;;8.20;4.50;;;9.50;16.50;;;;;;7395348;19;19946;-72
2023/12/21 00:33:44;;;;;;;9.48;4.57;;;9.60;16.10;;;;;;7397775;19;19919;-73
2023/12/21 00:36:18;;;;;;;9.82;5.72;;;9.60;16.10;;;;;;7399101;19;19922;-73
2023/12/21 00:38:43;;;;;;;8.30;4.78;;;9.70;15.70;;;;;;7398751;19;19924;-72
2023/12/21 00:41:10;;;;;;;8.90;4.07;;;9.70;15.40;;;;;;7395519;19;19930;-72
2023/12/21 00:43:35;;;;;;;8.75;4.03;;;9.70;14.70;;;;;;7395472;19;20014;-72
2023/12/21 00:46:01;;;;;;;8.38;4.03;;;10.00;13.70;;;;;;7398607;19;19939;-72
2023/12/21 00:48:27;;;;;;;7.53;4.00;;;9.80;14.00;;;;;;7400640;19;19922;-72
2023/12/21 00:50:52;;;;;;;6.93;3.38;;;9.90;14.10;;;;;;7399011;19;20342;-72
2023/12/21 00:53:19;;;;;;;6.35;3.38;;;10.10;13.30;;;;;;7396568;19;19911;-72
2023/12/21 00:55:45;;;;;;;8.32;4.75;;;10.00;14.50;;;;;;7400147;19;20546;-72
2023/12/21 00:58:11;;;;;;;8.07;3.83;;;9.90;14.80;;;;;;7397292;19;20238;-73
2023/12/21 01:00:38;;;;;;;6.78;3.42;;;9.90;14.40;;;;;;7399912;19;20495;-72
2023/12/21 01:03:06;;;;;;;7.28;3.38;;;9.70;14.80;;;;;;7397158;19;19918;-72
2023/12/21 01:05:31;;;;;;;9.48;4.15;;;9.60;15.10;;;;;;7378101;19;19997;-75
2023/12/21 01:07:58;;;;;;;8.23;3.53;;;9.50;15.80;;;;;;7398271;19;19935;-73
2023/12/21 01:10:23;;;;;;;9.60;3.35;;;9.70;15.70;;;;;;7396643;19;19922;-72
2023/12/21 01:12:50;;;;;;;6.28;2.90;;;9.60;15.50;;;;;;7392513;19;19911;-72
2023/12/21 01:15:16;;;;;;;8.07;3.72;;;9.60;15.90;;;;;;7398445;19;20647;-73
2023/12/21 01:17:42;;;;;;;8.40;2.88;;;9.50;17.10;;;;;;7395189;19;19926;-73
2023/12/21 01:20:09;;;;;;;5.95;2.53;;;9.50;18.10;;;;;;7391685;19;19922;-74
2023/12/21 01:22:35;;;;;;;5.15;3.15;;;9.40;18.80;;;;;;7398951;19;20242;-72
2023/12/21 01:25:00;;;;;;;7.13;3.17;;;9.30;19.90;;;;;;7400321;19;19921;-72
2023/12/21 01:27:27;;;;;;;5.43;2.35;;;9.20;20.40;;;;;;7398029;19;19919;-73
2023/12/21 01:29:52;;;;;;;6.10;2.88;;;9.20;20.60;;;;;;7401772;19;20247;-73
2023/12/21 01:32:18;;;;;;;5.65;2.72;;;9.30;20.40;;;;;;7399869;19;19925;-72
2023/12/21 01:34:44;;;;;;;5.97;2.72;;;9.10;20.70;;;;;;7400217;19;20338;-71
2023/12/21 01:37:10;;;;;;;5.25;2.50;;;9.30;20.60;;;;;;7394230;19;19937;-73
2023/12/21 01:39:35;;;;;;;6.10;2.75;;;9.10;20.80;;;;;;7395256;19;19930;-72
2023/12/21 01:42:01;;;;;;;5.95;2.65;;;9.10;21.10;;;;;;7401057;19;19948;-72
2023/12/21 01:44:28;;;;;;;7.13;2.60;;;9.30;19.30;;;;;;7399961;19;19934;-74
2023/12/21 01:46:54;;;;;;;5.30;2.28;;;9.50;18.00;;;;;;7400793;19;19914;-72
2023/12/21 01:49:20;;;;;;;5.68;2.30;;;9.60;18.50;;;;;;7398933;19;19989;-72
2023/12/21 01:51:47;;;;;;;5.43;2.28;;;9.50;19.40;;;;;;7399462;19;19915;-72
2023/12/21 01:54:13;;;;;;;6.32;3.35;;;10.00;17.10;;;;;;7399678;19;20631;-73
2023/12/21 01:56:38;;;;;;;6.03;2.35;;;10.10;16.20;;;;;;7398432;19;19914;-72
2023/12/21 01:59:04;;;;;;;5.95;2.20;;;10.20;16.20;;;;;;7397429;19;20322;-73
2023/12/21 02:01:30;;;;;;;5.32;2.28;;;10.10;17.10;;;;;;7401331;19;20036;-72
2023/12/21 02:03:56;;;;;;;5.35;2.40;;;10.00;17.50;;;;;;7399385;19;19958;-72
2023/12/21 02:06:24;;;;;;;4.95;2.08;;;9.90;18.10;;;;;;7398310;19;19949;-72
2023/12/21 02:08:49;;;;;;;5.57;1.98;;;9.90;17.40;;;;;;7401084;19;19923;-73
2023/12/21 02:11:15;;;;;;;8.05;2.40;;;9.80;17.60;;;;;;7399352;19;19939;-73
2023/12/21 02:13:41;;;;;;;4.50;2.20;;;9.90;17.50;;;;;;7399145;19;19919;-72
2023/12/21 02:16:11;;;;;;;5.18;2.05;;;9.70;18.70;;;;;;7396926;19;19914;-73
2023/12/21 02:18:37;;;;;;;6.47;2.25;;;9.50;20.50;;;;;;7399654;19;19970;-72
2023/12/21 02:21:03;;;;;;;5.63;2.22;;;9.30;22.00;;;;;;7399727;19;19927;-72
2023/12/21 02:23:36;;;;;;;4.30;1.90;;;9.30;23.30;;;;;;7378719;19;19914;-72
2023/12/21 02:26:02;;;;;;;4.85;1.92;;;9.20;23.90;;;;;;7406339;19;19937;-73
2023/12/21 02:28:30;;;;;;;5.53;2.17;;;9.10;25.00;;;;;;7406402;19;19922;-73
2023/12/21 02:30:56;;;;;;;5.90;1.90;;;9.20;24.60;;;;;;7401442;19;19918;-72
2023/12/21 02:33:22;;;;;;;4.60;1.90;;;9.20;24.10;;;;;;7405722;19;24597;-71
2023/12/21 02:35:48;;;;;;;4.20;1.90;;;9.30;23.90;;;;;;7404918;19;19918;-72
2023/12/21 02:38:14;;;;;;;4.30;1.80;;;9.30;23.90;;;;;;7403070;19;19918;-72
2023/12/21 02:40:40;;;;;;;4.32;1.85;;;9.30;25.10;;;;;;7404898;19;19994;-73
2023/12/21 02:43:05;;;;;;;6.03;2.17;;;9.30;25.20;;;;;;7404050;19;19925;-73
2023/12/21 02:45:31;;;;;;;4.75;1.60;;;9.30;25.80;;;;;;7403653;19;19918;-72
2023/12/21 02:47:57;;;;;;;4.18;1.52;;;9.30;25.60;;;;;;7403713;19;20338;-73
2023/12/21 02:50:23;;;;;;;4.07;1.30;;;9.30;25.60;;;;;;7402481;19;19951;-73
2023/12/21 02:52:49;;;;;;;4.30;1.70;;;9.20;25.70;;;;;;7403883;19;19915;-71
2023/12/21 02:55:15;;;;;;;4.03;1.55;;;9.40;25.30;;;;;;7404893;19;19929;-72
2023/12/21 02:57:41;;;;;;;6.10;1.40;;;9.40;26.30;;;;;;7405757;19;19922;-71
2023/12/21 03:00:08;;;;;;;3.63;1.27;;;9.40;27.40;;;;;;7402901;19;19940;-73
2023/12/21 03:02:33;;;;;;;2.90;1.38;;;9.30;28.00;;;;;;7404703;19;19933;-73
2023/12/21 03:04:59;;;;;;;3.75;1.45;;;9.20;27.70;;;;;;7405100;19;19919;-72
2023/12/21 03:07:25;;;;;;;3.40;1.30;;;9.20;29.00;;;;;;7403172;19;20338;-72
2023/12/21 03:09:51;;;;;;;3.42;1.30;;;9.20;29.30;;;;;;7403472;19;19921;-72
2023/12/21 03:12:16;;;;;;;3.35;1.33;;;9.10;29.00;;;;;;7380486;19;19998;-72
2023/12/21 03:14:42;;;;;;;4.05;1.27;;;9.10;29.10;;;;;;7404010;19;19940;-72
2023/12/21 03:17:08;;;;;;;3.75;1.60;;;9.10;27.80;;;;;;7401170;19;20617;-73
2023/12/21 03:19:34;;;;;;;3.90;1.60;;;9.30;27.50;;;;;;7405986;19;19914;-73
2023/12/21 03:22:00;;;;;;;4.30;1.15;;;9.60;24.90;;;;;;7405656;19;19918;-73
2023/12/21 03:24:25;;;;;;;5.18;1.73;;;9.70;24.00;;;;;;7405891;19;19926;-73
2023/12/21 03:26:51;;;;;;;3.78;1.30;;;9.90;22.80;;;;;;7403529;19;19918;-72
2023/12/21 03:29:17;;;;;;;4.43;1.02;;;10.10;21.80;;;;;;7403499;19;20643;-72
2023/12/21 03:31:43;;;;;;;3.38;1.40;;;10.30;21.00;;;;;;7400810;19;19974;-72
2023/12/21 03:34:08;;;;;;;6.93;1.80;;;10.30;20.50;;;;;;7406006;19;19929;-72
2023/12/21 03:36:34;;;;;;;3.42;1.58;;;10.20;20.80;;;;;;7405250;19;19927;-72
2023/12/21 03:39:00;;;;;;;3.90;1.52;;;10.40;20.60;;;;;;7403244;19;19957;-73
2023/12/21 03:41:26;;;;;;;3.83;1.35;;;10.20;21.10;;;;;;7397706;19;20262;-73
2023/12/21 03:43:52;;;;;;;3.65;1.23;;;10.20;21.20;;;;;;7401998;19;19930;-72
2023/12/21 03:46:17;;;;;;;4.95;1.30;;;10.20;21.00;;;;;;7401268;19;19947;-72
2023/12/21 03:48:43;;;;;;;3.95;1.45;;;10.30;21.10;;;;;;7401982;19;20006;-72
2023/12/21 03:51:09;;;;;;;3.58;1.50;;;10.30;20.70;;;;;;7400920;19;20360;-72
2023/12/21 03:53:35;;;;;;;3.88;1.50;;;10.30;20.50;;;;;;7405313;19;19978;-72
2023/12/21 03:56:01;;;;;;;4.45;1.58;;;10.40;20.40;;;;;;7403144;19;19911;-72
2023/12/21 03:58:28;;;;;;;3.60;1.50;;;10.40;20.10;;;;;;7403667;19;19919;-72
2023/12/21 04:00:53;;;;;;;;;;;10.50;20.30;;;;;;7405765;19;19988;-72
2023/12/21 04:03:20;;;;;;;5.95;1.77;;;10.30;21.40;;;;;;7404885;19;19922;-72
2023/12/21 04:05:45;;;;;;;4.93;1.23;;;10.20;22.40;;;;;;7402378;19;19910;-71
2023/12/21 04:08:11;;;;;;;4.18;1.50;;;9.90;23.70;;;;;;7398334;19;19925;-72
2023/12/21 04:10:37;;;;;;;4.25;1.48;;;9.70;25.00;;;;;;7405032;19;19923;-72
2023/12/21 04:13:03;;;;;;;4.40;1.90;;;9.50;26.10;;;;;;7398318;19;19930;-72
2023/12/21 04:15:29;;;;;;;3.65;1.58;;;9.50;26.70;;;;;;7402887;19;19915;-72
2023/12/21 04:17:54;;;;;;;3.53;1.58;;;9.40;27.60;;;;;;7403436;19;19926;-72
2023/12/21 04:20:20;;;;;;;3.42;1.40;;;9.30;27.50;;;;;;7400623;19;19988;-73
2023/12/21 04:22:46;;;;;;;4.57;1.88;;;9.40;27.80;;;;;;7403381;19;20339;-71
2023/12/21 04:25:12;;;;;;;3.63;1.33;;;9.20;28.20;;;;;;7399264;19;19914;-72
2023/12/21 04:27:38;;;;;;;4.70;1.55;;;9.20;28.40;;;;;;7403889;19;19923;-72
2023/12/21 04:30:04;;;;;;;3.35;1.30;;;9.30;27.70;;;;;;7399649;19;20485;-73
2023/12/21 04:32:30;;;;;;;4.43;1.60;;;9.40;27.80;;;;;;7397263;19;19918;-73
2023/12/21 04:34:55;;;;;;;3.95;1.45;;;9.40;28.40;;;;;;7403233;19;20016;-73
2023/12/21 04:37:22;;;;;;;4.22;1.75;;;9.30;28.80;;;;;;7398471;19;20818;-73
2023/12/21 04:39:48;;;;;;;4.75;1.45;;;9.30;27.80;;;;;;7404692;19;20277;-72
2023/12/21 04:42:14;;;;;;;4.82;1.70;;;9.50;26.70;;;;;;7399707;19;19949;-72
2023/12/21 04:44:40;;;;;;;3.20;1.20;;;9.50;27.50;;;;;;7402800;19;19926;-72
2023/12/21 04:47:08;;;;;;;4.50;1.60;;;9.50;27.00;;;;;;7398342;19;19922;-72
2023/12/21 04:49:35;;;;;;;2.78;1.13;;;9.70;26.10;;;;;;7399197;19;19918;-72
2023/12/21 04:52:02;;;;;;;3.63;1.60;;;9.80;25.30;;;;;;7402149;19;19926;-73
2023/12/21 04:54:28;;;;;;;5.57;1.90;;;9.70;26.30;;;;;;7402165;19;19919;-73
2023/12/21 04:56:53;;;;;;;4.00;1.83;;;9.50;27.40;;;;;;7401430;19;19946;-72
2023/12/21 04:59:19;;;;;;;3.78;1.55;;;9.40;28.00;;;;;;7401136;19;19923;-72
2023/12/21 05:01:52;;;;;;;4.68;1.65;;;9.40;28.30;;;;;;7401571;19;19990;-72
2023/12/21 05:04:18;;;;;;;3.50;1.38;;;9.20;28.70;;;;;;7400190;19;19927;-72
2023/12/21 05:06:44;;;;;;;4.55;1.80;;;9.40;28.50;;;;;;7402311;19;19936;-73
2023/12/21 05:09:10;;;;;;;5.05;1.67;;;9.60;27.80;;;;;;7401534;19;19919;-72
2023/12/21 05:11:35;;;;;;;6.28;1.77;;;9.50;27.90;;;;;;7401110;19;19930;-72
2023/12/21 05:14:01;;;;;;;4.47;1.80;;;9.50;28.70;;;;;;7401520;19;19923;-72
2023/12/21 05:16:27;;;;;;;4.85;1.65;;;9.50;28.20;;;;;;7398552;19;19923;-72
2023/12/21 05:18:54;;;;;;;3.75;1.48;;;9.40;29.10;;;;;;7401417;19;20272;-73
2023/12/21 05:21:20;;;;;;;3.65;1.42;;;9.40;29.50;;;;;;7400889;19;20380;-72
2023/12/21 05:23:45;;;;;;;3.38;1.45;;;9.40;28.60;;;;;;7399475;19;19978;-72
2023/12/21 05:26:13;;;;;;;4.22;1.58;;;9.50;28.20;;;;;;7399926;19;19998;-72
2023/12/21 05:28:41;;;;;;;2.83;1.02;;;9.50;27.90;;;;;;7402630;19;19922;-72
2023/12/21 05:31:08;;;;;;;3.40;1.30;;;9.80;25.80;;;;;;7399166;19;19934;-72
2023/12/21 05:33:34;;;;;;;3.67;1.52;;;9.80;26.40;;;;;;7399293;19;20305;-72
2023/12/21 05:35:59;;;;;;;4.25;1.75;;;9.80;27.10;;;;;;7401345;19;19925;-73
2023/12/21 05:38:25;;;;;;;4.30;1.38;;;9.60;27.70;;;;;;7397258;19;20358;-72
2023/12/21 05:40:51;;;;;;;4.30;1.63;;;9.50;28.90;;;;;;7401462;19;19915;-72
2023/12/21 05:43:17;;;;;;;4.13;1.50;;;9.40;29.50;;;;;;7398021;19;20385;-72
2023/12/21 05:45:43;;;;;;;4.72;1.65;;;9.40;30.00;;;;;;7402354;19;19914;-73
2023/12/21 05:48:08;;;;;;;4.38;1.70;;;9.40;30.50;;;;;;7397794;19;19917;-73
2023/12/21 05:50:34;;;;;;;5.38;1.55;;;9.30;30.90;;;;;;7397985;19;19911;-72
2023/12/21 05:53:01;;;;;;;3.90;1.58;;;9.30;30.60;;;;;;7400050;19;19918;-73
2023/12/21 05:55:27;;;;;;;3.30;1.33;;;9.20;31.10;;;;;;7396753;19;19915;-72
2023/12/21 05:57:53;;;;;;;4.25;1.50;;;9.20;31.30;;;;;;7398851;19;20345;-71
2023/12/21 06:00:19;;;;;;;5.18;1.90;;;9.30;32.80;;;;;;7396752;19;20415;-72
2023/12/21 06:02:45;;;;;;;4.55;1.70;;;9.20;34.00;;;;;;7399918;19;19922;-72
2023/12/21 06:05:11;;;;;;;5.47;1.90;;;9.10;35.50;;;;;;7396007;19;20381;-73
2023/12/21 06:07:37;;;;;;;6.07;1.92;;;9.00;37.10;;;;;;7398336;19;19914;-73
2023/12/21 06:10:03;;;;;;;6.03;1.88;;;9.00;38.20;;;;;;7399751;19;20390;-73
2023/12/21 06:12:29;;;;;;;6.85;2.35;;;8.90;38.60;;;;;;7398960;19;20361;-73
2023/12/21 06:14:55;;;;;;;5.60;2.30;;;8.80;40.60;;;;;;7394702;19;19923;-73
2023/12/21 06:17:20;;;;;;;6.53;3.38;;;8.60;41.70;;;;;;7398752;19;20495;-72
2023/12/21 06:19:46;;;;;;;5.97;2.38;;;8.50;42.90;;;;;;7398025;19;19957;-73
2023/12/21 06:22:12;;;;;;;8.20;2.63;;;8.60;45.40;;;;;;7397696;19;19919;-73
2023/12/21 06:24:38;;;;;;;4.78;2.40;;;8.40;44.90;;;;;;7396305;19;19935;-72
2023/12/21 06:27:04;;;;;;;7.55;2.88;;;8.40;45.90;;;;;;7396133;19;19926;-73
2023/12/21 06:29:30;;;;;;;5.50;2.45;;;8.40;46.80;;;;;;7396841;19;19915;-73
2023/12/21 06:31:56;;;;;;;5.50;2.30;;;8.30;47.30;;;;;;7396988;19;19959;-73
2023/12/21 06:34:23;;;;;;;4.93;2.35;;;8.30;47.90;;;;;;7395821;19;19934;-73
2023/12/21 06:36:49;;;;;;;6.72;2.35;;;8.30;48.30;;;;;;7400832;19;19918;-73
2023/12/21 06:39:15;;;;;;;5.55;2.58;;;8.30;48.60;;;;;;7395954;19;19946;-74
2023/12/21 06:41:41;;;;;;;7.40;2.72;;;8.30;48.70;;;;;;7399189;19;19930;-73
2023/12/21 06:44:10;;;;;;;9.88;2.95;;;8.40;49.40;;;;;;7397392;19;19993;-72
2023/12/21 06:46:36;;;;;;;5.90;2.72;;;8.50;49.10;;;;;;7398413;19;19918;-72
2023/12/21 06:49:02;;;;;;;8.15;2.90;;;8.40;48.60;;;;;;7401892;19;19921;-73
2023/12/21 06:51:29;;;;;;;7.20;2.47;;;8.30;48.70;;;;;;7395504;19;19918;-72
2023/12/21 06:53:54;;;;;;;5.68;2.55;;;8.30;48.30;;;;;;7399359;19;19914;-73
2023/12/21 06:56:20;;;;;;;8.65;2.83;;;8.30;48.70;;;;;;7393677;19;20025;-72
2023/12/21 06:58:46;;;;;;;7.10;2.80;;;8.60;47.70;;;;;;7396624;19;19914;-74
2023/12/21 07:01:12;;;;;;;9.60;2.92;;;8.50;47.10;;;;;;7397224;19;19919;-73
2023/12/21 07:03:38;;;;;;;5.50;2.50;;;8.60;47.10;;;;;;7400701;19;19928;-72
2023/12/21 07:06:04;;;;;;;6.03;2.30;;;8.60;46.60;;;;;;7392896;19;19906;-72
2023/12/21 07:08:30;;;;;;;5.57;2.50;;;8.70;45.70;;;;;;7396639;19;19922;-73
2023/12/21 07:10:56;;;;;;;7.45;2.28;;;8.70;44.70;;;;;;7398123;19;19918;-74
2023/12/21 07:13:22;;;;;;;5.88;2.53;;;9.00;40.60;;;;;;7404218;19;20526;-73
2023/12/21 07:15:48;;;;;;;6.60;2.97;;;8.90;40.80;;;;;;7381875;19;20328;-73
2023/12/21 07:18:13;;;;;;;6.35;2.70;;;9.10;39.40;;;;;;7405052;19;19918;-73
2023/12/21 07:20:40;;;;;;;7.00;2.55;;;9.00;40.30;;;;;;7407801;19;19949;-73
2023/12/21 07:23:07;;;;;;;7.35;2.70;;;9.00;40.70;;;;;;7402927;19;19915;-71
2023/12/21 07:25:32;;;;;;;9.07;3.25;;;8.90;41.90;;;;;;7406121;19;20373;-73
2023/12/21 07:27:58;;;;;;;7.55;3.22;;;8.90;42.60;;;;;;7404948;19;19931;-72
2023/12/21 07:30:24;;;;;;;7.93;2.70;;;8.90;42.60;;;;;;7399614;19;19999;-73
2023/12/21 07:32:50;;;;;;;12.00;3.40;;;8.90;42.80;;;;;;7400415;19;19914;-73
2023/12/21 07:35:15;;;;;;;8.40;3.17;;;8.80;43.00;;;;;;7393294;19;19915;-71
2023/12/21 07:37:42;;;;;;;6.93;2.72;;;8.70;43.50;;;;;;7404308;19;19914;-72
2023/12/21 07:40:08;;;;;;;7.13;2.80;;;8.70;44.50;;;;;;7390854;19;19926;-73
2023/12/21 07:42:33;;;;;;;5.90;2.70;;;8.90;43.10;;;;;;7405573;19;19930;-74
2023/12/21 07:44:59;;;;;;;5.82;2.22;;;9.00;42.20;;;;;;7404744;19;20257;-73
2023/12/21 07:47:25;;;;;;;7.55;1.90;;;9.10;41.00;;;;;;7403436;19;19953;-73
2023/12/21 07:49:51;;;;;;;7.18;2.03;;;9.20;39.70;;;;;;7402301;19;20259;-72
2023/12/21 07:52:17;;;;;;;6.47;2.20;;;9.30;39.50;;;;;;7402193;19;19941;-73
2023/12/21 07:54:42;;;;;;;6.18;3.22;;;9.20;39.80;;;;;;7403490;19;20506;-72
2023/12/21 07:57:10;;;;;;;13.73;3.95;;;9.20;40.00;;;;;;7386312;19;19918;-73
2023/12/21 07:59:36;;;;;;;9.07;2.38;;;9.20;40.50;;;;;;7379525;19;20361;-72
2023/12/21 08:02:02;;;;;;;12.45;2.20;;;9.20;39.80;;;;;;7395018;19;19914;-73
2023/12/21 08:04:28;;;;;;;8.85;2.15;;;9.30;39.50;;;;;;7390685;19;19919;-73
2023/12/21 08:06:55;;;;;;;9.68;2.42;;;9.30;38.90;;;;;;7394245;19;19914;-73
2023/12/21 08:09:21;;;;;;;4.97;1.90;;;9.40;38.50;;;;;;7393801;19;19918;-72
2023/12/21 08:11:47;;;;;;;6.75;2.53;;;9.50;38.00;;;;;;7401550;19;19926;-73
2023/12/21 08:14:13;;;;;;;6.32;2.50;;;10.20;34.50;;;;;;7393589;19;19911;-73
2023/12/21 08:16:39;;;;;;;10.82;3.40;;;11.80;28.60;;;;;;7390357;19;19917;-72
2023/12/21 08:19:05;;;;;;;11.27;3.50;;;12.80;24.70;;;;;;7399976;19;19919;-73
2023/12/21 08:21:31;;;;;;;8.40;3.60;;;13.10;22.00;;;;;;7385626;19;19926;-72
2023/12/21 08:23:57;;;;;;;6.55;2.83;;;13.60;21.30;;;;;;7400722;19;20258;-74
2023/12/21 08:26:22;;;;;;;11.23;3.30;;;14.40;18.70;;;;;;7392155;19;19951;-73
2023/12/21 08:28:48;;;;;;;8.60;3.03;;;15.30;16.60;;;;;;7402675;19;21320;-74
2023/12/21 08:31:25;;;;;;;7.13;2.88;;;15.70;15.00;;;;;;7381328;19;19927;-72
2023/12/21 08:33:51;;;;;;;10.68;3.90;;;15.80;12.40;;;;;;7381362;19;20279;-72
2023/12/21 08:36:18;;;;;;;9.95;4.35;;;15.80;12.50;;;;;;7388358;19;19926;-73
2023/12/21 08:38:44;;;;;;;9.88;3.92;;;15.90;11.80;;;;;;7386686;19;19923;-74
2023/12/21 08:41:09;;;;;;;10.60;4.13;;;14.60;12.80;;;;;;7398992;19;20244;-73
2023/12/21 08:43:36;;;;;;;8.55;3.60;;;14.50;14.50;;;;;;7401026;19;19926;-73
2023/12/21 08:46:03;;;;;;;9.05;3.65;;;15.30;13.00;;;;;;7397978;19;19917;-74
2023/12/21 08:48:31;;;;;;;8.95;3.78;;;14.70;13.70;;;;;;7388506;19;19911;-74
2023/12/21 08:50:57;;;;;;;7.45;4.05;;;13.90;14.90;;;;;;7385460;19;20694;-74
2023/12/21 08:53:23;;;;;;;6.78;2.17;;;13.10;16.70;;;;;;7366961;19;20336;-73
2023/12/21 08:55:48;;;;;;;5.07;1.67;;;12.40;19.50;;;;;;7389833;19;19929;-73
2023/12/21 08:58:14;;;;;;;5.18;1.30;;;12.20;20.40;;;;;;7390709;19;20465;-73
2023/12/21 09:00:40;;;;;;;5.50;1.88;;;12.30;20.00;;;;;;7391431;19;19915;-73
2023/12/21 09:03:06;;;;;;;16.42;3.50;;;12.20;21.30;;;;;;7400468;19;19986;-75
2023/12/21 09:05:32;;;;;;;8.07;3.28;;;12.40;21.80;;;;;;7401290;19;20251;-74
2023/12/21 09:07:58;;;;;;;6.03;2.95;;;12.50;21.30;;;;;;7397003;19;19922;-73
2023/12/21 09:10:24;;;;;;;11.70;3.05;;;12.50;21.30;;;;;;7387960;19;19926;-74
2023/12/21 09:12:50;;;;;;;9.02;2.35;;;12.50;21.40;;;;;;7400611;19;20239;-73
2023/12/21 09:15:16;;;;;;;6.68;2.75;;;12.70;21.00;;;;;;7397576;19;19922;-74
2023/12/21 09:17:42;;;;;;;4.20;2.00;;;12.80;20.80;;;;;;7399729;19;19918;-73
2023/12/21 09:20:09;;;;;;;4.18;1.60;;;12.80;20.70;;;;;;7394008;19;19915;-73
2023/12/21 09:22:36;;;;;;;3.92;1.60;;;13.00;20.90;;;;;;7399918;19;19925;-73
2023/12/21 09:25:02;;;;;;;3.92;1.42;;;13.40;19.90;;;;;;7387831;19;19919;-74
2023/12/21 09:27:30;;;;;;;4.75;1.50;;;13.70;19.30;;;;;;7386733;19;19922;-74
2023/12/21 09:29:57;;;;;;;3.85;1.35;;;14.00;17.70;;;;;;7396396;19;20380;-73
2023/12/21 09:32:23;;;;;;;5.70;1.90;;;14.60;16.30;;;;;;7383565;19;20493;-74
2023/12/21 09:34:49;;;;;;;3.92;1.52;;;14.90;15.00;;;;;;7400910;19;19934;-73
2023/12/21 09:37:16;;;;;;;5.70;1.52;;;15.20;14.10;;;;;;7393284;19;19922;-73
2023/12/21 09:39:41;;;;;;;;;;;15.30;13.40;;;;;;7398990;19;20030;-73
2023/12/21 09:42:08;;;;;;;3.70;1.27;;;15.80;12.90;;;;;;7395238;19;19919;-73
2023/12/21 09:44:35;;;;;;;5.80;1.40;;;15.80;11.50;;;;;;7397477;19;19918;-73
2023/12/21 09:47:04;;;;;;;;;;;16.20;11.10;;;;;;7399808;19;20259;-73
2023/12/21 09:49:36;;;;;;;4.60;1.40;;;16.10;10.30;;;;;;7388308;19;19919;-73
2023/12/21 09:52:07;;;;;;;4.18;1.52;;;15.70;10.50;;;;;;7384386;19;19957;-75
2023/12/21 09:54:35;;;;;;;2.75;1.25;;;15.80;10.20;;;;;;7381987;19;19996;-74
2023/12/21 09:57:02;;;;;;;2.78;1.23;;;15.80;9.60;;;;;;7387748;19;19918;-74
2023/12/21 09:59:31;;;;;;;3.80;1.40;;;15.70;10.30;;;;;;7399490;19;19910;-73
2023/12/21 10:01:57;;;;;;;4.45;1.55;;;15.60;10.50;;;;;;7400033;19;19919;-72
2023/12/21 10:04:26;;;;;;;4.03;2.17;;;15.40;11.00;;;;;;7395595;19;20597;-72
2023/12/21 10:06:52;;;;;;;3.05;1.55;;;15.40;11.20;;;;;;7393283;19;19935;-73
2023/12/21 10:09:19;;;;;;;3.83;1.70;;;15.10;11.70;;;;;;7396094;19;19918;-74
2023/12/21 10:11:45;;;;;;;3.72;1.70;;;15.80;10.80;;;;;;7393246;19;20278;-74
2023/12/21 10:14:19;;;;;;;;;;;16.00;10.00;;;;;;7396382;19;19922;-73
2023/12/21 10:16:45;;;;;;;3.65;1.60;;;15.90;9.40;;;;;;7390046;19;19926;-74
2023/12/21 10:19:11;;;;;;;4.75;1.80;;;15.50;9.90;;;;;;7397041;19;20608;-73
2023/12/21 10:21:40;;;;;;;6.75;1.73;;;15.50;10.40;;;;;;7391634;19;19974;-73
2023/12/21 10:24:07;;;;;;;4.80;1.35;;;15.60;10.10;;;;;;7394180;19;19926;-73
2023/12/21 10:26:40;;;;;;;3.80;1.67;;;14.90;11.10;;;;;;7377300;19;19949;-73
2023/12/21 10:29:06;;;;;;;4.47;1.58;;;14.90;12.10;;;;;;7391506;19;19922;-73
2023/12/21 10:31:32;;;;;;;6.75;1.73;;;14.80;12.60;;;;;;7386258;19;19918;-72
2023/12/21 10:33:58;;;;;;;5.75;1.50;;;14.70;13.60;;;;;;7380258;19;19923;-73
2023/12/21 10:36:23;;;;;;;5.10;1.67;;;14.20;14.70;;;;;;7387794;19;20646;-73
2023/12/21 10:38:49;;;;;;;5.55;2.13;;;14.20;15.80;;;;;;7398379;19;19986;-72
2023/12/21 10:41:15;;;;;;;3.75;1.60;;;14.10;16.60;;;;;;7397394;19;19919;-72
2023/12/21 10:43:42;;;;;;;3.83;1.40;;;13.90;17.40;;;;;;7399650;19;19926;-74
2023/12/21 10:46:09;;;;;;;3.40;1.20;;;13.60;17.70;;;;;;7396760;19;19929;-73
2023/12/21 10:48:38;;;;;;;3.30;1.50;;;13.50;19.10;;;;;;7396222;19;19998;-72
2023/12/21 10:51:04;;;;;;;5.68;1.60;;;13.60;19.80;;;;;;7389326;19;19956;-73
2023/12/21 10:53:30;;;;;;;3.42;1.55;;;13.60;20.40;;;;;;7401315;19;20390;-72
2023/12/21 10:55:58;;;;;;;4.22;1.77;;;13.50;20.90;;;;;;7402355;19;19918;-73
2023/12/21 10:58:26;;;;;;;3.80;1.83;;;13.70;20.80;;;;;;7370522;19;20308;-72
2023/12/21 11:00:55;;;;;;;3.88;1.60;;;14.10;19.90;;;;;;7376845;19;19922;-73
2023/12/21 11:03:21;;;;;;;3.70;1.40;;;14.20;20.20;;;;;;7402048;19;20272;-73
2023/12/21 11:05:47;;;;;;;5.13;1.60;;;14.50;19.20;;;;;;7397648;19;19932;-72
2023/12/21 11:08:13;;;;;;;3.80;1.77;;;14.40;19.30;;;;;;7400612;19;19921;-73
2023/12/21 11:10:40;;;;;;;5.57;1.80;;;14.80;18.50;;;;;;7405038;19;19907;-73
2023/12/21 11:13:06;;;;;;;5.35;1.83;;;15.00;18.10;;;;;;7398226;19;19922;-72
2023/12/21 11:15:33;;;;;;;6.95;1.67;;;15.10;17.20;;;;;;7401999;19;19919;-71
2023/12/21 11:18:09;;;;;;;6.90;1.70;;;14.60;18.60;;;;;;7401447;19;19941;-73
2023/12/21 11:20:42;;;;;;;7.13;1.45;;;14.70;18.40;;;;;;7390795;19;19958;-73
2023/12/21 11:23:10;;;;;;;5.72;1.83;;;14.40;18.70;;;;;;7394899;19;20508;-74
2023/12/21 11:25:35;;;;;;;;;;;14.10;19.60;;;;;;7404250;19;19937;-73
2023/12/21 11:28:03;;;;;;;4.43;1.38;;;13.90;20.70;;;;;;7396062;19;20507;-72
2023/12/21 11:30:29;;;;;;;4.10;1.33;;;13.50;21.60;;;;;;7400119;19;20548;-73
2023/12/21 11:33:09;;;;;;;2.75;1.08;;;13.60;22.50;;;;;;7400258;19;19929;-73
2023/12/21 11:35:35;;;;;;;5.68;1.30;;;13.50;22.60;;;;;;7389164;19;19941;-73
2023/12/21 11:38:07;;;;;;;6.95;1.48;;;13.40;23.30;;;;;;7386615;19;19931;-72
2023/12/21 11:40:37;;;;;;;6.65;1.77;;;14.00;22.40;;;;;;7392697;19;19918;-73
2023/12/21 11:43:06;;;;;;;6.05;1.95;;;14.90;21.00;;;;;;7403672;19;19911;-73
2023/12/21 11:45:32;;;;;;;4.35;1.30;;;16.70;17.00;;;;;;7394172;19;19979;-73
2023/12/21 11:48:02;;;;;;;3.53;1.35;;;17.80;14.10;;;;;;7402634;19;19922;-76
2023/12/21 11:50:33;;;;;;;4.15;1.52;;;18.80;11.60;;;;;;7394952;19;20313;-74
2023/12/21 11:53:07;;;;;;;3.75;1.25;;;18.80;9.90;;;;;;7403456;19;19923;-74
2023/12/21 11:55:41;;;;;;;4.25;1.73;;;19.50;9.30;;;;;;7393273;19;19914;-74
2023/12/21 11:58:18;;;;;;;8.60;1.90;;;19.50;7.80;;;;;;7375203;19;19930;-73
2023/12/21 12:00:49;;;;;;;6.28;1.38;;;19.80;7.40;;;;;;7390432;19;19910;-73
2023/12/21 12:03:16;;;;;;;4.38;1.48;;;20.10;6.80;;;;;;7394065;19;20258;-74
2023/12/21 12:05:42;;;;;;;4.47;1.67;;;19.70;7.00;;;;;;7401200;19;20326;-75
2023/12/21 12:08:08;;;;;;;5.00;2.53;;;20.00;6.80;;;;;;7391766;19;20707;-74
2023/12/21 12:10:34;;;;;;;5.50;1.73;;;20.30;5.40;;;;;;7391678;19;19934;-74
2023/12/21 12:13:03;;;;;;;5.13;1.58;;;19.90;6.30;;;;;;7399488;19;19921;-73
2023/12/21 12:15:29;;;;;;;3.50;1.90;;;20.40;5.10;;;;;;7400072;19;19936;-73
2023/12/21 12:17:55;;;;;;;4.15;1.70;;;19.80;4.90;;;;;;7401820;19;19914;-74
2023/12/21 12:20:21;;;;;;;5.15;2.00;;;20.10;5.40;;;;;;7401406;19;20589;-74
2023/12/21 12:22:52;;;;;;;4.53;1.90;;;20.00;5.40;;;;;;7404207;19;19934;-74
2023/12/21 12:25:18;;;;;;;4.68;1.45;;;20.30;5.90;;;;;;7403715;19;19918;-75
2023/12/21 12:27:46;;;;;;;3.83;1.60;;;21.10;4.40;;;;;;7402636;19;20732;-74
2023/12/21 12:30:13;;;;;;;4.82;2.40;;;21.60;3.00;;;;;;7400715;19;19922;-73
2023/12/21 12:32:39;;;;;;;4.40;2.50;;;21.10;3.30;;;;;;7402066;19;19915;-74
2023/12/21 12:35:08;;;;;;;5.30;2.53;;;22.60;2.30;;;;;;7402608;19;20012;-74
2023/12/21 12:37:35;;;;;;;3.72;1.75;;;23.90;1.00;;;;;;7401164;19;19992;-73
2023/12/21 12:40:04;;;;;;;3.55;1.80;;;23.70;1.00;;;;;;7403124;19;19918;-74
2023/12/21 12:42:31;;;;;;;5.72;2.00;;;23.60;1.00;;;;;;7398300;19;19925;-73
2023/12/21 12:44:58;;;;;;;3.80;2.70;;;24.30;1.00;;;;;;7400605;19;20274;-75
2023/12/21 12:47:24;;;;;;;7.13;2.30;;;24.50;1.00;;;;;;7395492;19;19945;-73
2023/12/21 12:49:50;;;;;;;4.43;2.38;;;25.10;1.00;;;;;;7397949;19;19986;-73
2023/12/21 12:52:18;;;;;;;3.92;2.25;;;24.60;1.00;;;;;;7399522;19;19986;-75